Terminal Aerodrome Forecast
Issued by NWS Grand Forks, ND

Home | Current Version | Previous Version | Text Only | Print | Product List | Glossary Off
Versions: 1 2 3 4 5 6 7 8 9 10 11 12 13 14 15 16

000
FTUS43 KFGF 270500
TAFGFK
TAF
KGFK 270522Z 2706/2806 31003KT P6SM SKC
     FM271000 19003KT P6SM SCT250
     FM280000 15008KT P6SM OVC100
     FM280300 15013KT P6SM -SN OVC035=

USA.gov is the U.S. government's official web portal to all federal, state and local government web resources and services.